Terminal Aerodrome Forecast
Issued by NWS

Current Version | Previous Version | Text Only | Print | Product List | Glossary Off
Versions: 1 2 3 4 5 6 7 8 9 10 11 12 13 14 15 16 17 18

000
FTUS41 KILN 212341 AAA
TAFLCK
TAF AMD
KLCK 212341Z 2200/2224 23008KT P6SM BKN120
     FM220300 30011G17KT P6SM VCSH OVC035
      TEMPO 2203/2207 OVC023
     FM220800 33006KT P6SM SCT050
     FM221200 35007KT P6SM SCT050
     FM222100 33006KT P6SM SCT250=

USA.gov is the U.S. government's official web portal to all federal, state and local government web resources and services.